createdAt,value
2023-02-11T00:01:08.186Z,15.27
2023-02-11T00:03:37.350Z,17.33
2023-02-11T00:06:09.161Z,16.03
2023-02-11T00:08:38.707Z,15.27
2023-02-11T00:11:06.975Z,15.37
2023-02-11T00:13:34.737Z,15.40
2023-02-11T00:16:07.708Z,15.97
2023-02-11T00:18:36.395Z,15.23
2023-02-11T00:21:08.442Z,17.03
2023-02-11T00:23:37.959Z,15.53
2023-02-11T00:26:06.354Z,15.97
2023-02-11T00:28:33.995Z,17.07
2023-02-11T00:31:02.629Z,17.07
2023-02-11T00:33:30.383Z,16.57
2023-02-11T00:35:58.057Z,15.70
2023-02-11T00:38:25.765Z,18.87
2023-02-11T00:40:54.723Z,16.63
2023-02-11T00:43:22.431Z,17.23
2023-02-11T00:45:50.498Z,17.60
2023-02-11T00:48:18.409Z,17.13
2023-02-11T00:50:46.107Z,16.33
2023-02-11T00:53:13.899Z,15.33
2023-02-11T00:55:41.551Z,16.10
2023-02-11T00:58:10.583Z,17.67
2023-02-11T01:00:38.364Z,17.07
2023-02-11T01:03:06.071Z,16.30
2023-02-11T01:05:33.967Z,18.23
2023-02-11T01:08:01.705Z,16.50
2023-02-11T01:10:29.592Z,17.33
2023-02-11T01:12:57.302Z,15.47
2023-02-11T01:15:26.697Z,16.20
2023-02-11T01:17:54.427Z,13.73
2023-02-11T01:20:24.629Z,14.40
2023-02-11T01:22:52.449Z,13.47
2023-02-11T01:25:20.239Z,14.03
2023-02-11T01:27:47.876Z,14.70
2023-02-11T01:30:15.557Z,14.23
2023-02-11T01:32:44.597Z,11.67
2023-02-11T01:35:12.284Z,12.70
2023-02-11T01:37:40.015Z,12.57
2023-02-11T01:40:13.241Z,15.77
2023-02-11T01:42:41.018Z,15.00
2023-02-11T01:45:41.723Z,13.93
2023-02-11T01:48:12.260Z,14.40
2023-02-11T01:50:41.427Z,15.67
2023-02-11T01:53:23.922Z,14.23
2023-02-11T01:56:09.942Z,14.57
2023-02-11T01:58:39.765Z,13.73
2023-02-11T02:01:08.165Z,13.03
2023-02-11T02:03:39.057Z,15.07
2023-02-11T02:06:10.846Z,13.73
2023-02-11T02:08:41.765Z,15.23
2023-02-11T02:11:09.899Z,15.03
2023-02-11T02:13:37.646Z,15.27
2023-02-11T02:16:09.843Z,14.80
2023-02-11T02:18:45.129Z,15.70
2023-02-11T02:21:48.720Z,16.13
2023-02-11T02:24:43.827Z,14.43
2023-02-11T02:27:26.102Z,15.47
2023-02-11T02:30:34.161Z,14.40
2023-02-11T02:33:22.780Z,13.70
2023-02-11T02:35:56.067Z,12.87
2023-02-11T02:38:26.651Z,12.67
2023-02-11T02:40:57.010Z,12.43
2023-02-11T02:43:25.944Z,11.57
2023-02-11T02:45:53.627Z,12.20
2023-02-11T02:48:31.568Z,12.63
2023-02-11T02:51:11.521Z,11.53
2023-02-11T02:53:48.235Z,11.90
2023-02-11T02:56:21.675Z,11.67
2023-02-11T02:59:27.600Z,12.87
2023-02-11T03:02:05.406Z,11.13
2023-02-11T03:04:37.761Z,11.20
2023-02-11T03:07:10.129Z,10.47
2023-02-11T03:09:40.584Z,11.20
2023-02-11T03:12:08.602Z,10.70
2023-02-11T03:14:37.231Z,10.87
2023-02-11T03:17:06.293Z,12.03
2023-02-11T03:19:38.006Z,10.97
2023-02-11T03:24:51.893Z,8.90
2023-02-11T03:27:21.813Z,9.30
2023-02-11T03:29:54.618Z,8.33
2023-02-11T03:32:27.947Z,9.07
2023-02-11T03:34:59.466Z,8.37
2023-02-11T03:37:32.003Z,7.53
2023-02-11T03:40:03.673Z,7.70
2023-02-11T03:42:34.847Z,8.70
2023-02-11T03:45:06.753Z,7.70
2023-02-11T03:47:36.553Z,8.10
2023-02-11T03:50:08.028Z,7.50
2023-02-11T03:52:36.566Z,6.73
2023-02-11T03:55:07.374Z,7.53
2023-02-11T03:57:35.171Z,7.13
2023-02-11T04:00:02.899Z,6.83
2023-02-11T04:02:32.337Z,7.37
2023-02-11T04:05:00.237Z,7.80
2023-02-11T04:07:29.340Z,8.50
2023-02-11T04:09:56.983Z,7.13
2023-02-11T04:12:24.606Z,6.97
2023-02-11T04:14:52.386Z,6.47
2023-02-11T04:17:20.045Z,9.13
2023-02-11T04:19:47.751Z,7.57
2023-02-11T04:25:03.100Z,6.63
2023-02-11T04:27:30.999Z,6.83
2023-02-11T04:29:58.626Z,8.40
2023-02-11T04:32:26.366Z,6.60
2023-02-11T04:34:54.833Z,6.73
2023-02-11T04:37:22.485Z,8.67
2023-02-11T04:39:50.181Z,6.67
2023-02-11T04:42:19.211Z,7.50
2023-02-11T04:44:46.871Z,7.63
2023-02-11T04:47:16.301Z,7.23
2023-02-11T04:49:43.945Z,8.17
2023-02-11T04:52:11.890Z,7.20
2023-02-11T04:54:39.706Z,7.00
2023-02-11T04:57:07.572Z,7.20
2023-02-11T04:59:36.592Z,7.73
2023-02-11T05:02:05.131Z,8.13
2023-02-11T05:04:32.934Z,7.23
2023-02-11T05:07:00.684Z,8.90
2023-02-11T05:09:28.327Z,7.10
2023-02-11T05:11:55.995Z,9.37
2023-02-11T05:14:23.949Z,8.17
2023-02-11T05:16:53.077Z,8.23
2023-02-11T05:19:20.717Z,9.57
2023-02-11T05:22:01.805Z,7.03
2023-02-11T05:24:30.513Z,8.30
2023-02-11T05:26:58.200Z,8.17
2023-02-11T05:29:25.914Z,7.03
2023-02-11T05:31:55.037Z,7.37
2023-02-11T05:34:22.796Z,6.33
2023-02-11T05:36:50.492Z,8.07
2023-02-11T05:39:18.151Z,7.13
2023-02-11T05:41:45.878Z,8.23
2023-02-11T05:44:13.534Z,7.57
2023-02-11T05:46:41.250Z,6.63
2023-02-11T05:49:10.305Z,7.53
2023-02-11T05:51:37.959Z,7.43
2023-02-11T05:54:05.998Z,6.37
2023-02-11T05:56:33.644Z,7.33
2023-02-11T05:59:01.681Z,8.13
2023-02-11T06:01:29.328Z,9.73
2023-02-11T06:03:57.197Z,7.30
2023-02-11T06:06:26.828Z,7.43
2023-02-11T06:08:54.488Z,6.83
2023-02-11T06:11:22.250Z,6.57
2023-02-11T06:13:49.946Z,7.20
2023-02-11T06:16:17.788Z,7.50
2023-02-11T06:18:45.508Z,7.63
2023-02-11T06:21:13.610Z,7.83
2023-02-11T06:23:43.597Z,9.03
2023-02-11T06:26:17.955Z,7.37
2023-02-11T06:28:45.818Z,8.70
2023-02-11T06:31:13.949Z,6.63
2023-02-11T06:33:41.853Z,7.27
2023-02-11T06:36:15.099Z,6.80
2023-02-11T06:38:44.413Z,7.40
2023-02-11T06:41:12.730Z,8.47
2023-02-11T06:43:40.691Z,8.90
2023-02-11T06:46:08.552Z,9.93
2023-02-11T06:48:36.874Z,10.93
2023-02-11T06:51:05.707Z,10.47
2023-02-11T06:53:35.638Z,8.70
2023-02-11T06:56:06.333Z,10.97
2023-02-11T06:58:34.361Z,9.63
2023-02-11T07:01:06.125Z,7.60
2023-02-11T07:03:34.802Z,7.17
2023-02-11T07:06:02.516Z,8.53
2023-02-11T07:08:30.193Z,7.80
2023-02-11T07:10:57.836Z,6.67
2023-02-11T07:13:26.895Z,7.50
2023-02-11T07:15:54.700Z,6.53
2023-02-11T07:18:22.364Z,9.03
2023-02-11T07:20:50.068Z,7.73
2023-02-11T07:23:17.695Z,7.10
2023-02-11T07:25:45.338Z,8.63
2023-02-11T07:28:13.035Z,7.43
2023-02-11T07:30:42.183Z,7.20
2023-02-11T07:33:09.920Z,7.23
2023-02-11T07:35:37.630Z,6.47
2023-02-11T07:38:05.275Z,7.33
2023-02-11T07:40:32.986Z,8.30
2023-02-11T07:43:01.764Z,8.43
2023-02-11T07:45:29.601Z,8.87
2023-02-11T07:47:58.693Z,8.43
2023-02-11T07:50:26.393Z,9.27
2023-02-11T07:52:54.046Z,8.43
2023-02-11T07:55:21.707Z,8.47
2023-02-11T07:57:49.489Z,9.37
2023-02-11T08:00:20.825Z,9.07
2023-02-11T08:02:48.772Z,9.70
2023-02-11T08:05:17.907Z,11.03
2023-02-11T08:07:45.595Z,8.30
2023-02-11T08:10:13.241Z,9.17
2023-02-11T08:12:40.898Z,9.87
2023-02-11T08:15:09.298Z,7.47
2023-02-11T08:17:37.002Z,7.03
2023-02-11T08:20:04.984Z,7.07
2023-02-11T08:22:42.065Z,6.00
2023-02-11T08:25:09.710Z,6.13
2023-02-11T08:27:37.355Z,5.87
2023-02-11T08:30:05.711Z,7.13
2023-02-11T08:32:35.717Z,5.90
2023-02-11T08:35:03.354Z,6.43
2023-02-11T08:37:33.079Z,6.70
2023-02-11T08:40:02.212Z,6.60
2023-02-11T08:42:29.839Z,5.27
2023-02-11T08:44:57.542Z,5.87
2023-02-11T08:47:25.181Z,7.20
2023-02-11T08:49:52.833Z,7.97
2023-02-11T08:52:20.455Z,7.97
2023-02-11T08:54:48.229Z,8.47
2023-02-11T08:57:17.394Z,7.73
2023-02-11T08:59:45.032Z,7.27
2023-02-11T09:02:14.071Z,6.93
2023-02-11T09:04:42.022Z,6.67
2023-02-11T09:07:09.737Z,6.83
2023-02-11T09:09:37.433Z,6.93
2023-02-11T09:12:05.614Z,7.20
2023-02-11T09:14:35.046Z,7.77
2023-02-11T09:17:02.840Z,6.20
2023-02-11T09:19:30.598Z,6.00
2023-02-11T09:21:59.032Z,6.63
2023-02-11T09:24:26.707Z,6.93
2023-02-11T09:26:54.482Z,6.40
2023-02-11T09:29:22.170Z,6.63
2023-02-11T09:31:51.301Z,7.00
2023-02-11T09:34:19.055Z,6.57
2023-02-11T09:36:47.047Z,5.90
2023-02-11T09:39:17.910Z,6.13
2023-02-11T09:42:04.161Z,6.03
2023-02-11T09:44:34.149Z,5.30
2023-02-11T09:47:05.210Z,7.63
2023-02-11T09:49:36.656Z,6.53
2023-02-11T09:52:07.953Z,6.37
2023-02-11T09:54:38.923Z,6.03
2023-02-11T09:57:14.262Z,6.07
2023-02-11T09:59:49.278Z,5.37
2023-02-11T10:02:24.822Z,5.43
2023-02-11T10:05:10.296Z,5.80
2023-02-11T10:07:42.983Z,5.73
2023-02-11T10:10:17.297Z,6.27
2023-02-11T10:12:57.241Z,5.97
2023-02-11T10:15:32.906Z,5.73
2023-02-11T10:18:16.141Z,6.10
2023-02-11T10:20:50.192Z,6.40
2023-02-11T10:23:20.667Z,6.17
2023-02-11T10:25:52.878Z,5.93
2023-02-11T10:28:24.671Z,7.77
2023-02-11T10:30:58.707Z,6.63
2023-02-11T10:33:30.288Z,6.10
2023-02-11T10:35:57.967Z,5.83
2023-02-11T10:38:25.828Z,6.30
2023-02-11T10:40:53.583Z,6.67
2023-02-11T10:43:24.949Z,7.17
2023-02-11T10:45:54.099Z,6.83
2023-02-11T10:48:43.355Z,6.27
2023-02-11T10:51:20.748Z,6.83
2023-02-11T10:53:49.891Z,6.70
2023-02-11T10:56:24.813Z,6.77
2023-02-11T10:58:59.057Z,6.53
2023-02-11T11:01:40.363Z,6.30
2023-02-11T11:04:37.226Z,6.67
2023-02-11T11:07:14.555Z,6.57
2023-02-11T11:09:48.608Z,6.10
2023-02-11T11:12:28.312Z,6.53
2023-02-11T11:14:56.846Z,7.50
2023-02-11T11:17:25.780Z,8.13
2023-02-11T11:19:54.831Z,7.77
2023-02-11T11:22:23.546Z,7.70
2023-02-11T11:24:54.385Z,7.17
2023-02-11T11:27:25.055Z,7.30
2023-02-11T11:29:54.707Z,7.57
2023-02-11T11:32:24.264Z,7.87
2023-02-11T11:34:55.655Z,7.53
2023-02-11T11:37:27.254Z,7.93
2023-02-11T11:39:58.739Z,6.83
2023-02-11T11:42:28.263Z,8.40
2023-02-11T11:45:00.118Z,9.07
2023-02-11T11:47:33.148Z,8.37
2023-02-11T11:50:24.088Z,8.17
2023-02-11T11:52:57.562Z,7.97
2023-02-11T11:55:27.385Z,7.83
2023-02-11T11:57:55.042Z,9.27
2023-02-11T12:00:37.434Z,8.23
2023-02-11T12:03:29.105Z,7.40
2023-02-11T12:06:12.768Z,8.53
2023-02-11T12:08:46.486Z,8.27
2023-02-11T12:11:20.986Z,8.37
2023-02-11T12:13:59.797Z,8.43
2023-02-11T12:16:36.714Z,8.83
2023-02-11T12:19:18.469Z,9.40
2023-02-11T12:21:57.585Z,8.30
2023-02-11T12:24:33.927Z,8.43
2023-02-11T12:27:05.011Z,8.37
2023-02-11T12:29:38.653Z,7.80
2023-02-11T12:32:14.449Z,8.07
2023-02-11T12:35:03.499Z,7.90
2023-02-11T12:37:43.611Z,9.07
2023-02-11T12:40:17.212Z,9.00
2023-02-11T12:43:13.349Z,8.10
2023-02-11T12:45:50.667Z,8.73
2023-02-11T12:48:27.464Z,8.53
2023-02-11T12:51:00.112Z,7.93
2023-02-11T12:53:41.430Z,9.10
2023-02-11T12:56:15.364Z,8.80
2023-02-11T12:58:45.741Z,9.00
2023-02-11T13:01:20.743Z,8.57
2023-02-11T13:03:50.188Z,10.30
2023-02-11T13:06:20.440Z,9.33
2023-02-11T13:08:51.298Z,8.60
2023-02-11T13:11:21.565Z,8.53
2023-02-11T13:13:54.838Z,7.37
2023-02-11T13:16:31.341Z,8.20
2023-02-11T13:19:04.760Z,9.37
2023-02-11T13:21:39.729Z,9.97
2023-02-11T13:24:18.870Z,9.27
2023-02-11T13:26:51.251Z,8.50
2023-02-11T13:29:28.844Z,8.63
2023-02-11T13:31:57.072Z,8.60
2023-02-11T13:34:28.637Z,7.87
2023-02-11T13:36:57.147Z,8.70
2023-02-11T13:39:26.220Z,8.67
2023-02-11T13:42:03.628Z,8.60
2023-02-11T13:44:34.802Z,8.67
2023-02-11T13:47:04.706Z,8.50
2023-02-11T13:49:36.349Z,9.40
2023-02-11T13:52:06.730Z,8.27
2023-02-11T13:54:38.882Z,9.53
2023-02-11T13:57:29.085Z,9.30
2023-02-11T13:59:58.214Z,10.10
2023-02-11T14:02:49.888Z,9.10
2023-02-11T14:05:42.710Z,9.57
2023-02-11T14:08:44.411Z,9.37
2023-02-11T14:11:41.858Z,12.77
2023-02-11T14:14:23.843Z,10.60
2023-02-11T14:17:31.995Z,10.43
2023-02-11T14:20:00.215Z,12.40
2023-02-11T14:22:29.776Z,12.00
2023-02-11T14:24:59.811Z,11.50
2023-02-11T14:27:43.742Z,11.90
2023-02-11T14:31:55.543Z,12.67
2023-02-11T14:34:39.805Z,11.37
2023-02-11T14:37:15.750Z,11.53
2023-02-11T14:39:55.687Z,13.07
2023-02-11T14:42:26.854Z,13.30
2023-02-11T14:44:56.085Z,12.20
2023-02-11T14:47:29.860Z,13.83
2023-02-11T14:49:57.853Z,14.90
2023-02-11T14:52:30.198Z,13.50
2023-02-11T14:55:17.858Z,12.00
2023-02-11T14:57:45.883Z,13.33
2023-02-11T15:00:19.008Z,14.07
2023-02-11T15:02:48.331Z,13.40
2023-02-11T15:05:19.011Z,13.77
2023-02-11T15:07:49.057Z,13.03
2023-02-11T15:10:24.311Z,13.77
2023-02-11T15:12:53.542Z,13.97
2023-02-11T15:15:21.356Z,13.67
2023-02-11T15:17:50.771Z,14.97
2023-02-11T15:20:22.102Z,14.80
2023-02-11T15:22:53.404Z,13.83
2023-02-11T15:25:22.889Z,13.50
2023-02-11T15:27:51.813Z,12.83
2023-02-11T15:30:27.257Z,13.50
2023-02-11T15:32:59.968Z,18.20
2023-02-11T15:35:29.832Z,26.97
2023-02-11T15:37:58.380Z,26.43
2023-02-11T15:40:28.896Z,30.93
2023-02-11T15:42:58.772Z,30.90
2023-02-11T15:45:29.844Z,23.53
2023-02-11T15:48:01.530Z,22.00
2023-02-11T15:50:30.470Z,20.63
2023-02-11T15:53:00.756Z,18.80
2023-02-11T15:55:29.312Z,17.30
2023-02-11T15:57:59.137Z,16.57
2023-02-11T16:00:33.154Z,16.07
2023-02-11T16:03:02.764Z,17.17
2023-02-11T16:05:32.419Z,15.70
2023-02-11T16:08:00.340Z,15.83
2023-02-11T16:10:31.441Z,15.70
2023-02-11T16:13:19.420Z,15.90
2023-02-11T16:15:49.903Z,14.80
2023-02-11T16:18:38.701Z,14.07
2023-02-11T16:21:09.396Z,13.90
2023-02-11T16:26:26.726Z,14.33
2023-02-11T16:28:54.593Z,14.60
2023-02-11T16:31:22.348Z,17.07
2023-02-11T16:33:52.063Z,16.00
2023-02-11T16:36:19.678Z,18.20
2023-02-11T16:38:47.368Z,15.77
2023-02-11T16:41:14.988Z,15.97
2023-02-11T16:43:42.673Z,16.60
2023-02-11T16:46:14.456Z,16.90
2023-02-11T16:48:42.226Z,15.43
2023-02-11T16:51:12.477Z,18.20
2023-02-11T16:53:40.155Z,17.23
2023-02-11T16:56:08.456Z,16.50
2023-02-11T16:58:36.064Z,17.40
2023-02-11T17:01:03.847Z,19.07
2023-02-11T17:03:36.167Z,20.13
2023-02-11T17:06:07.005Z,18.60
2023-02-11T17:08:36.547Z,19.60
2023-02-11T17:11:04.723Z,19.90
2023-02-11T17:13:32.633Z,24.47
2023-02-11T17:16:00.442Z,23.60
2023-02-11T17:18:28.190Z,22.80
2023-02-11T17:20:56.131Z,22.47
2023-02-11T17:23:23.831Z,21.50
2023-02-11T17:25:57.862Z,21.37
2023-02-11T17:28:25.627Z,21.17
2023-02-11T17:30:53.582Z,21.57
2023-02-11T17:33:21.227Z,19.87
2023-02-11T17:35:48.939Z,21.23
2023-02-11T17:38:16.596Z,24.17
2023-02-11T17:40:44.246Z,24.77
2023-02-11T17:43:13.250Z,24.20
2023-02-11T17:45:42.311Z,24.67
2023-02-11T17:48:09.960Z,25.80
2023-02-11T17:50:37.967Z,26.33
2023-02-11T17:53:05.595Z,24.80
2023-02-11T17:55:34.221Z,26.67
2023-02-11T17:58:01.981Z,25.37
2023-02-11T18:00:31.236Z,24.67
2023-02-11T18:03:02.728Z,23.40
2023-02-11T18:05:35.086Z,23.13
2023-02-11T18:08:03.295Z,24.00
2023-02-11T18:10:31.208Z,24.03
2023-02-11T18:12:58.865Z,23.00
2023-02-11T18:15:27.030Z,24.10
2023-02-11T18:17:56.219Z,22.17
2023-02-11T18:20:23.859Z,22.97
2023-02-11T18:22:51.571Z,23.73
2023-02-11T18:25:21.232Z,24.67
2023-02-11T18:27:48.943Z,24.87
2023-02-11T18:30:18.997Z,23.73
2023-02-11T18:32:47.065Z,22.90
2023-02-11T18:35:16.261Z,24.40
2023-02-11T18:37:44.519Z,26.13
2023-02-11T18:40:13.264Z,26.43
2023-02-11T18:42:41.115Z,25.07
2023-02-11T18:45:10.920Z,26.60
2023-02-11T18:47:38.890Z,25.67
2023-02-11T18:50:08.194Z,26.70
2023-02-11T18:52:38.452Z,25.27
2023-02-11T18:55:07.137Z,26.73
2023-02-11T18:57:34.875Z,23.87
2023-02-11T19:00:02.609Z,24.00
2023-02-11T19:02:30.372Z,26.70
2023-02-11T19:04:58.370Z,25.27
2023-02-11T19:07:26.172Z,27.50
2023-02-11T19:09:55.287Z,27.27
2023-02-11T19:12:23.014Z,26.23
2023-02-11T19:14:50.786Z,27.17
2023-02-11T19:17:18.498Z,28.03
2023-02-11T19:19:46.147Z,27.33
2023-02-11T19:22:14.020Z,27.03
2023-02-11T19:24:41.727Z,27.03
2023-02-11T19:27:11.066Z,37.57
2023-02-11T19:29:38.898Z,39.43
2023-02-11T19:32:07.276Z,37.60
2023-02-11T19:34:40.977Z,36.90
2023-02-11T19:37:10.719Z,32.43
2023-02-11T19:39:38.380Z,33.53
2023-02-11T19:42:06.498Z,32.03
2023-02-11T19:44:35.615Z,31.70
2023-02-11T19:47:03.324Z,30.17
2023-02-11T19:49:31.166Z,33.80
2023-02-11T19:51:59.040Z,34.13
2023-02-11T19:54:28.645Z,36.33
2023-02-11T19:56:56.928Z,36.90
2023-02-11T19:59:24.628Z,33.57
2023-02-11T20:01:53.946Z,34.33
2023-02-11T20:04:21.919Z,35.40
2023-02-11T20:06:49.632Z,31.87
2023-02-11T20:09:17.519Z,32.83
2023-02-11T20:11:45.423Z,34.03
2023-02-11T20:14:14.860Z,33.93
2023-02-11T20:16:49.123Z,35.33
2023-02-11T20:19:22.737Z,33.50
2023-02-11T20:21:53.148Z,34.30
2023-02-11T20:24:22.532Z,35.37
2023-02-11T20:26:55.175Z,35.50
2023-02-11T20:29:23.448Z,34.80
2023-02-11T20:31:51.638Z,35.70
2023-02-11T20:34:21.862Z,37.53
2023-02-11T20:36:52.084Z,37.97
2023-02-11T20:39:21.805Z,37.73
2023-02-11T20:41:50.089Z,35.67
2023-02-11T20:44:17.874Z,36.70
2023-02-11T20:46:47.057Z,34.30
2023-02-11T20:49:16.901Z,34.60
2023-02-11T20:51:46.078Z,32.80
2023-02-11T20:54:14.630Z,33.93
2023-02-11T20:56:42.412Z,34.27
2023-02-11T20:59:10.492Z,35.27
2023-02-11T21:01:40.648Z,34.03
2023-02-11T21:04:12.529Z,34.27
2023-02-11T21:06:41.880Z,36.37
2023-02-11T21:09:13.835Z,36.37
2023-02-11T21:11:41.564Z,37.57
2023-02-11T21:14:09.913Z,40.97
2023-02-11T21:16:37.698Z,40.27
2023-02-11T21:19:05.806Z,41.60
2023-02-11T21:21:33.492Z,42.83
2023-02-11T21:26:51.552Z,48.50
2023-02-11T21:29:19.259Z,46.07
2023-02-11T21:31:47.154Z,45.73
2023-02-11T21:34:16.088Z,45.23
2023-02-11T21:36:45.196Z,39.77
2023-02-11T21:39:13.579Z,39.63
2023-02-11T21:41:41.267Z,42.10
2023-02-11T21:44:10.392Z,40.07
2023-02-11T21:46:38.250Z,36.57
2023-02-11T21:49:06.170Z,36.00
2023-02-11T21:51:33.806Z,34.40
2023-02-11T21:54:02.459Z,34.03
2023-02-11T21:56:31.549Z,35.73
2023-02-11T21:59:00.469Z,32.50
2023-02-11T22:01:31.904Z,35.77
2023-02-11T22:04:00.197Z,33.30
2023-02-11T22:06:30.900Z,36.20
2023-02-11T22:08:59.214Z,37.97
2023-02-11T22:11:26.963Z,35.37
2023-02-11T22:13:55.357Z,38.57
2023-02-11T22:16:23.720Z,38.73
2023-02-11T22:18:53.024Z,46.00
2023-02-11T22:21:23.009Z,44.00
2023-02-11T22:23:51.339Z,39.10
2023-02-11T22:26:20.919Z,40.73
2023-02-11T22:28:49.411Z,40.17
2023-02-11T22:31:18.998Z,39.90
2023-02-11T22:33:47.049Z,36.57
2023-02-11T22:36:17.733Z,34.93
2023-02-11T22:38:45.460Z,37.83
2023-02-11T22:41:13.455Z,35.17
2023-02-11T22:43:42.879Z,37.17
2023-02-11T22:46:12.680Z,33.90
2023-02-11T22:48:40.456Z,36.57
2023-02-11T22:51:09.691Z,38.27
2023-02-11T22:53:39.257Z,36.10
2023-02-11T22:56:08.416Z,37.43
2023-02-11T22:58:37.346Z,39.83
2023-02-11T23:01:06.225Z,39.10
2023-02-11T23:03:34.604Z,40.33
2023-02-11T23:06:02.691Z,39.77
2023-02-11T23:08:31.466Z,38.97
2023-02-11T23:11:06.282Z,39.50
2023-02-11T23:13:36.594Z,37.53
2023-02-11T23:16:05.977Z,39.17
2023-02-11T23:18:34.085Z,41.37
2023-02-11T23:21:05.738Z,39.13
2023-02-11T23:23:34.089Z,41.17
2023-02-11T23:26:02.418Z,39.43
2023-02-11T23:28:31.564Z,38.40
2023-02-11T23:30:59.368Z,35.90
2023-02-11T23:33:27.044Z,39.43
2023-02-11T23:35:55.202Z,36.77
2023-02-11T23:38:23.052Z,38.80
2023-02-11T23:40:50.714Z,36.70
2023-02-11T23:43:18.388Z,37.90
2023-02-11T23:45:48.057Z,39.10
2023-02-11T23:48:15.781Z,39.63
2023-02-11T23:50:44.582Z,37.53
2023-02-11T23:53:12.557Z,36.27
2023-02-11T23:55:41.451Z,36.83
2023-02-11T23:58:10.514Z,36.20
